Time;durP1;ratioP1;P1;durP2;ratioP2;P2;SDS_P1;SDS_P2;PMS_P1;PMS_P2;Temp;Humidity;BMP_temperature;BMP_pressure;BME280_temperature;BME280_humidity;BME280_pressure;Samples;Min_cycle;Max_cycle;Signal;HPM_P1;HPM_P2
2021/09/04 00:01:33;;;;;;;9.52;5.60;;;18.70;72.70;;;;;;5096549;28;20040;-69
2021/09/04 00:03:59;;;;;;;10.35;6.07;;;18.70;72.80;;;;;;5096439;28;20492;-69
2021/09/04 00:06:24;;;;;;;9.05;5.65;;;18.60;72.80;;;;;;5095950;28;20075;-70
2021/09/04 00:08:50;;;;;;;8.80;5.72;;;18.70;72.80;;;;;;5096290;28;20044;-70
2021/09/04 00:11:16;;;;;;;6.60;5.38;;;18.60;72.70;;;;;;5096354;28;20079;-70
2021/09/04 00:13:42;;;;;;;9.05;5.30;;;18.60;72.70;;;;;;5078837;28;20042;-70
2021/09/04 00:16:07;;;;;;;9.20;5.18;;;18.60;72.80;;;;;;5096224;28;20039;-70
2021/09/04 00:18:34;;;;;;;8.18;4.88;;;18.60;72.60;;;;;;5095975;28;20048;-70
2021/09/04 00:21:00;;;;;;;6.82;5.53;;;18.60;72.60;;;;;;5096299;28;20354;-69
2021/09/04 00:23:26;;;;;;;8.40;5.63;;;18.60;72.60;;;;;;5095921;28;20123;-69
2021/09/04 00:25:52;;;;;;;8.25;5.50;;;18.70;72.80;;;;;;5095882;28;20127;-70
2021/09/04 00:28:17;;;;;;;9.43;5.25;;;18.60;72.60;;;;;;5096535;28;20040;-69
2021/09/04 00:30:44;;;;;;;9.10;5.13;;;18.60;72.60;;;;;;5095870;28;20168;-71
2021/09/04 00:33:10;;;;;;;8.73;5.35;;;18.60;72.60;;;;;;5095994;28;20379;-70
2021/09/04 00:35:35;;;;;;;7.00;5.30;;;18.60;72.60;;;;;;5078258;28;20050;-69
2021/09/04 00:38:01;;;;;;;6.57;5.07;;;18.60;72.80;;;;;;5096219;28;20423;-69
2021/09/04 00:40:27;;;;;;;7.60;5.10;;;18.60;72.80;;;;;;5078168;28;20044;-69
2021/09/04 00:42:52;;;;;;;7.13;4.57;;;18.60;72.80;;;;;;5095270;28;20176;-69
2021/09/04 00:45:18;;;;;;;6.50;5.00;;;18.60;72.80;;;;;;5095797;28;20123;-69
2021/09/04 00:48:01;;;;;;;6.38;4.72;;;18.60;72.80;;;;;;5095536;28;20036;-69
2021/09/04 00:50:28;;;;;;;6.70;4.90;;;18.60;72.30;;;;;;5095323;28;20463;-70
2021/09/04 00:52:54;;;;;;;9.38;4.85;;;18.50;72.80;;;;;;5078016;28;20044;-70
2021/09/04 00:55:21;;;;;;;8.35;5.30;;;18.60;72.80;;;;;;5077484;28;20055;-69
2021/09/04 00:57:47;;;;;;;6.05;4.50;;;18.60;72.80;;;;;;5095740;28;20044;-70
2021/09/04 01:00:13;;;;;;;6.15;5.07;;;18.50;72.60;;;;;;5095361;28;20047;-70
2021/09/04 01:02:39;;;;;;;6.68;4.43;;;18.50;72.70;;;;;;5095274;28;20127;-70
2021/09/04 01:05:07;;;;;;;7.22;4.68;;;18.50;72.60;;;;;;5095132;28;20123;-69
2021/09/04 01:07:33;;;;;;;5.20;4.03;;;18.60;72.80;;;;;;5095081;28;20101;-70
2021/09/04 01:09:59;;;;;;;5.65;4.00;;;18.60;72.80;;;;;;5078114;28;20075;-70
2021/09/04 01:12:25;;;;;;;7.05;4.55;;;18.60;72.60;;;;;;5095257;28;20129;-69
2021/09/04 01:14:51;;;;;;;7.15;4.20;;;18.50;72.50;;;;;;5077444;28;20080;-71
2021/09/04 01:17:17;;;;;;;5.65;3.90;;;18.50;72.60;;;;;;5095175;28;20211;-70
2021/09/04 01:19:42;;;;;;;6.13;4.82;;;18.50;72.50;;;;;;5095513;28;20115;-70
2021/09/04 01:22:09;;;;;;;5.80;4.22;;;18.50;72.40;;;;;;5095648;28;20443;-70
2021/09/04 01:24:34;;;;;;;6.85;4.13;;;18.50;72.50;;;;;;5077397;28;20051;-69
2021/09/04 01:27:00;;;;;;;5.00;3.42;;;18.50;72.60;;;;;;5095237;28;20031;-70
2021/09/04 01:29:26;;;;;;;5.13;3.90;;;18.50;73.30;;;;;;5095702;28;20135;-70
2021/09/04 01:31:52;;;;;;;5.50;3.55;;;18.50;72.70;;;;;;5077559;28;20044;-69
2021/09/04 01:34:18;;;;;;;6.45;3.88;;;18.50;72.80;;;;;;5077188;28;20399;-69
2021/09/04 01:36:43;;;;;;;6.18;4.05;;;18.50;72.70;;;;;;5095537;28;20047;-69
2021/09/04 01:39:10;;;;;;;5.72;4.00;;;18.50;72.70;;;;;;5095215;28;20086;-69
2021/09/04 01:41:38;;;;;;;6.18;3.65;;;18.60;72.80;;;;;;5095935;28;20043;-70
2021/09/04 01:44:04;;;;;;;5.85;3.58;;;18.60;72.80;;;;;;5077350;28;20123;-70
2021/09/04 01:46:30;;;;;;;5.63;4.03;;;18.60;72.80;;;;;;5094396;28;20048;-70
2021/09/04 01:48:59;;;;;;;5.50;3.67;;;18.60;72.90;;;;;;5094346;28;20082;-70
2021/09/04 01:51:25;;;;;;;7.00;4.28;;;18.60;72.90;;;;;;5059945;28;20330;-70
2021/09/04 01:53:51;;;;;;;6.03;3.53;;;18.60;72.70;;;;;;5076716;28;20055;-69
2021/09/04 01:56:17;;;;;;;5.20;3.30;;;18.60;72.80;;;;;;5077446;28;20048;-70
2021/09/04 01:58:43;;;;;;;5.65;4.00;;;18.60;72.90;;;;;;5076957;28;20093;-70
2021/09/04 02:01:08;;;;;;;6.18;3.78;;;18.60;72.90;;;;;;5076525;28;20115;-70
2021/09/04 02:03:35;;;;;;;6.55;3.70;;;18.60;72.80;;;;;;5094514;28;20069;-69
2021/09/04 02:06:02;;;;;;;5.65;3.65;;;18.60;72.70;;;;;;5094738;28;20052;-70
2021/09/04 02:08:28;;;;;;;5.03;3.38;;;18.60;72.70;;;;;;5060439;28;20386;-69
2021/09/04 02:10:54;;;;;;;6.00;3.50;;;18.60;73.40;;;;;;5094971;28;20036;-70
2021/09/04 02:13:20;;;;;;;4.97;2.67;;;18.60;73.40;;;;;;5094887;28;20131;-70
2021/09/04 02:15:46;;;;;;;6.32;3.65;;;18.60;72.70;;;;;;5094515;28;20059;-70
2021/09/04 02:18:12;;;;;;;6.82;3.28;;;18.60;72.80;;;;;;5077533;28;20126;-70
2021/09/04 02:20:38;;;;;;;5.30;2.97;;;18.60;72.90;;;;;;5096095;28;20095;-70
2021/09/04 02:23:03;;;;;;;7.18;3.20;;;18.60;72.60;;;;;;5080813;28;20048;-70
2021/09/04 02:25:29;;;;;;;7.15;3.38;;;18.60;72.70;;;;;;5098421;28;20072;-70
2021/09/04 02:27:55;;;;;;;6.07;3.35;;;18.60;72.80;;;;;;5098342;28;20040;-69
2021/09/04 02:30:20;;;;;;;5.07;2.83;;;18.60;72.80;;;;;;5097837;28;20089;-69
2021/09/04 02:32:46;;;;;;;7.45;3.25;;;18.50;72.80;;;;;;5079830;28;20052;-70
2021/09/04 02:35:12;;;;;;;4.25;2.95;;;18.50;72.70;;;;;;5097648;28;20032;-69
2021/09/04 02:37:38;;;;;;;4.32;2.92;;;18.50;72.80;;;;;;5079483;28;20044;-70
2021/09/04 02:40:06;;;;;;;6.75;3.15;;;18.50;72.70;;;;;;5097552;28;20090;-70
2021/09/04 02:42:32;;;;;;;6.80;3.30;;;18.50;72.80;;;;;;5097166;28;20071;-70
2021/09/04 02:44:58;;;;;;;6.03;2.70;;;18.50;72.80;;;;;;5096970;28;20131;-69
2021/09/04 02:47:24;;;;;;;5.10;3.00;;;18.50;72.60;;;;;;5097220;28;20131;-70
2021/09/04 02:49:50;;;;;;;5.03;2.75;;;18.50;72.70;;;;;;5079379;28;20051;-70
2021/09/04 02:52:16;;;;;;;4.97;2.70;;;18.50;72.80;;;;;;5079387;28;20071;-70
2021/09/04 02:54:41;;;;;;;4.20;2.80;;;18.50;72.60;;;;;;5097103;28;20040;-70
2021/09/04 02:57:08;;;;;;;5.18;2.65;;;18.50;72.70;;;;;;5079334;28;20164;-70
2021/09/04 02:59:34;;;;;;;4.18;2.45;;;18.50;72.60;;;;;;5079380;28;20047;-70
2021/09/04 03:01:59;;;;;;;4.88;2.67;;;18.50;72.60;;;;;;5094262;28;20122;-69
2021/09/04 03:04:25;;;;;;;4.82;3.15;;;18.50;72.30;;;;;;5097035;28;20031;-70
2021/09/04 03:06:51;;;;;;;5.63;2.70;;;18.40;72.40;;;;;;5096973;28;20071;-69
2021/09/04 03:09:16;;;;;;;8.23;2.55;;;18.40;72.20;;;;;;5079011;28;20039;-69
2021/09/04 03:11:42;;;;;;;6.45;2.22;;;18.40;72.40;;;;;;5096606;28;20044;-69
2021/09/04 03:14:08;;;;;;;4.22;2.60;;;18.40;72.30;;;;;;5096588;28;20429;-69
2021/09/04 03:16:34;;;;;;;3.47;2.30;;;18.40;72.30;;;;;;5096639;28;20166;-69
2021/09/04 03:19:00;;;;;;;5.97;2.28;;;18.40;72.40;;;;;;5096614;28;20040;-70
2021/09/04 03:21:26;;;;;;;5.63;2.28;;;18.40;72.50;;;;;;5062333;28;20112;-69
2021/09/04 03:23:51;;;;;;;4.45;2.38;;;18.40;72.30;;;;;;5096682;28;20047;-69
2021/09/04 03:26:17;;;;;;;4.38;2.60;;;18.40;72.30;;;;;;5096271;28;20032;-70
2021/09/04 03:28:43;;;;;;;4.95;2.58;;;18.40;72.30;;;;;;5078677;28;20047;-70
2021/09/04 03:31:09;;;;;;;3.58;2.20;;;18.40;72.40;;;;;;5095653;28;20076;-69
2021/09/04 03:33:34;;;;;;;4.20;2.22;;;18.40;72.40;;;;;;5078678;28;20105;-70
2021/09/04 03:36:01;;;;;;;5.95;2.45;;;18.40;72.40;;;;;;5096347;28;20061;-70
2021/09/04 03:38:27;;;;;;;6.07;2.42;;;18.30;72.50;;;;;;5093187;28;20091;-70
2021/09/04 03:40:53;;;;;;;4.95;2.45;;;18.40;72.50;;;;;;5076535;28;20107;-70
2021/09/04 03:43:18;;;;;;;3.03;2.00;;;18.40;72.50;;;;;;5076177;28;20140;-69
2021/09/04 03:45:44;;;;;;;4.70;2.10;;;18.40;72.40;;;;;;5076366;28;20044;-70
2021/09/04 03:48:10;;;;;;;3.30;2.10;;;18.40;72.40;;;;;;5076553;28;20041;-70
2021/09/04 03:50:36;;;;;;;5.50;2.38;;;18.40;72.30;;;;;;5076477;28;20131;-69
2021/09/04 03:53:01;;;;;;;8.35;2.30;;;18.40;72.30;;;;;;5076375;28;20044;-70
2021/09/04 03:55:27;;;;;;;4.57;2.05;;;18.40;72.20;;;;;;5076844;28;20447;-70
2021/09/04 03:57:53;;;;;;;2.95;1.98;;;18.40;72.30;;;;;;5088425;28;20320;-70
2021/09/04 04:00:19;;;;;;;3.65;2.30;;;18.40;72.20;;;;;;5096557;28;20040;-69
2021/09/04 04:02:45;;;;;;;4.18;2.22;;;18.40;72.30;;;;;;5096564;28;20044;-69
2021/09/04 04:05:11;;;;;;;3.95;2.10;;;18.30;72.20;;;;;;5096576;28;20189;-70
2021/09/04 04:07:37;;;;;;;5.40;2.33;;;18.30;72.10;;;;;;5095628;28;20460;-69
2021/09/04 04:10:04;;;;;;;3.60;2.30;;;18.30;72.20;;;;;;5078452;28;20044;-69
2021/09/04 04:12:29;;;;;;;4.55;2.35;;;18.30;72.30;;;;;;5075478;28;20040;-70
2021/09/04 04:14:55;;;;;;;4.40;2.45;;;18.30;72.20;;;;;;5075718;28;20387;-69
2021/09/04 04:17:21;;;;;;;2.30;2.10;;;18.30;72.10;;;;;;5075744;28;20048;-70
2021/09/04 04:19:46;;;;;;;3.70;2.20;;;18.30;72.30;;;;;;5076185;28;20131;-69
2021/09/04 04:22:12;;;;;;;3.63;2.20;;;18.30;72.30;;;;;;5076063;28;20044;-70
2021/09/04 04:24:38;;;;;;;5.43;2.50;;;18.40;72.50;;;;;;5075554;28;20037;-70
2021/09/04 04:27:04;;;;;;;4.43;2.38;;;18.40;72.50;;;;;;5075440;28;20044;-70
2021/09/04 04:29:30;;;;;;;3.10;2.10;;;18.40;72.30;;;;;;5076137;28;20127;-69
2021/09/04 04:31:55;;;;;;;4.07;2.35;;;18.40;72.20;;;;;;5075485;28;20048;-70
2021/09/04 04:34:21;;;;;;;3.45;1.90;;;18.40;72.30;;;;;;5075638;28;20090;-70
2021/09/04 04:36:47;;;;;;;4.72;2.55;;;18.40;72.50;;;;;;5057849;28;20044;-69
2021/09/04 04:39:13;;;;;;;2.95;1.73;;;18.40;72.40;;;;;;5075616;28;20127;-70
2021/09/04 04:41:39;;;;;;;4.15;2.17;;;18.40;72.40;;;;;;5076033;28;20109;-69
2021/09/04 04:44:06;;;;;;;3.45;2.00;;;18.40;72.40;;;;;;5056782;28;20131;-70
2021/09/04 04:46:32;;;;;;;3.17;2.05;;;18.40;72.40;;;;;;5075465;28;20363;-70
2021/09/04 04:48:57;;;;;;;4.10;2.42;;;18.40;72.40;;;;;;5075709;28;20394;-69
2021/09/04 04:51:23;;;;;;;3.28;2.38;;;18.40;72.40;;;;;;5058280;28;20182;-70
2021/09/04 04:53:49;;;;;;;3.83;2.05;;;18.40;72.40;;;;;;5075250;28;20336;-70
2021/09/04 04:56:14;;;;;;;5.80;2.25;;;18.40;72.30;;;;;;5075214;28;20075;-70
2021/09/04 04:58:40;;;;;;;3.67;1.95;;;18.30;72.30;;;;;;5075105;28;20123;-69
2021/09/04 05:01:06;;;;;;;3.97;2.35;;;18.40;72.40;;;;;;5074868;28;20044;-70
2021/09/04 05:03:31;;;;;;;3.03;1.95;;;18.40;72.60;;;;;;5075092;28;20127;-70
2021/09/04 05:05:59;;;;;;;4.57;2.40;;;18.40;72.40;;;;;;5075270;28;20036;-70
2021/09/04 05:08:28;;;;;;;3.35;1.73;;;18.40;72.50;;;;;;5057521;28;20037;-69
2021/09/04 05:10:54;;;;;;;5.13;2.20;;;18.40;72.60;;;;;;5074936;28;20055;-69
2021/09/04 05:13:20;;;;;;;5.50;2.17;;;18.40;72.60;;;;;;5075008;28;20115;-71
2021/09/04 05:15:47;;;;;;;3.95;2.05;;;18.50;72.50;;;;;;5075235;28;20049;-69
2021/09/04 05:18:13;;;;;;;5.07;2.15;;;18.50;71.90;;;;;;5075219;28;20044;-71
2021/09/04 05:20:39;;;;;;;5.15;2.17;;;18.60;71.70;;;;;;5074943;28;20047;-69
2021/09/04 05:23:04;;;;;;;7.22;2.22;;;18.60;71.30;;;;;;5075168;28;20123;-71
2021/09/04 05:25:30;;;;;;;8.52;2.40;;;18.60;71.20;;;;;;5075032;28;20040;-70
2021/09/04 05:27:56;;;;;;;4.32;2.50;;;18.60;71.20;;;;;;5075034;28;20466;-70
2021/09/04 05:30:21;;;;;;;4.28;2.10;;;18.60;71.20;;;;;;5075247;28;20131;-70
2021/09/04 05:32:47;;;;;;;4.70;2.42;;;18.60;71.30;;;;;;5074806;28;20141;-70
2021/09/04 05:35:13;;;;;;;5.68;2.15;;;18.60;71.30;;;;;;5075211;28;20040;-71
2021/09/04 05:37:39;;;;;;;6.53;2.22;;;18.60;71.20;;;;;;5074891;28;20115;-70
2021/09/04 05:40:05;;;;;;;2.92;1.98;;;18.50;71.30;;;;;;5074726;28;20036;-70
2021/09/04 05:42:31;;;;;;;5.15;2.53;;;18.40;71.20;;;;;;5079913;28;20535;-71
2021/09/04 05:44:56;;;;;;;4.80;1.80;;;18.40;71.40;;;;;;5094891;28;20119;-71
2021/09/04 05:47:22;;;;;;;4.80;2.42;;;18.40;71.50;;;;;;5094951;28;20032;-71
2021/09/04 05:49:48;;;;;;;3.85;2.08;;;18.40;71.60;;;;;;5095189;28;20044;-72
2021/09/04 05:52:14;;;;;;;5.78;2.65;;;18.40;71.70;;;;;;5095013;28;20121;-71
2021/09/04 05:54:40;;;;;;;5.05;1.88;;;18.40;71.90;;;;;;5096297;28;20044;-70
2021/09/04 05:57:05;;;;;;;6.22;2.47;;;18.40;72.40;;;;;;5099139;28;20113;-73
2021/09/04 05:59:31;;;;;;;5.55;2.28;;;18.40;72.80;;;;;;5099398;28;20443;-71
2021/09/04 06:01:57;;;;;;;7.20;2.90;;;18.50;72.90;;;;;;5098795;28;20481;-71
2021/09/04 06:04:22;;;;;;;7.72;2.80;;;18.50;72.90;;;;;;5099135;28;20097;-72
2021/09/04 06:06:48;;;;;;;5.85;2.75;;;18.50;72.80;;;;;;5098586;28;20051;-71
2021/09/04 06:09:14;;;;;;;6.93;2.28;;;18.50;72.80;;;;;;5098602;28;20039;-71
2021/09/04 06:11:39;;;;;;;10.63;2.53;;;18.50;72.70;;;;;;5098304;28;20398;-71
2021/09/04 06:14:06;;;;;;;11.63;2.28;;;18.40;72.50;;;;;;5098684;28;20047;-70
2021/09/04 06:16:31;;;;;;;7.63;2.40;;;18.40;72.50;;;;;;5098589;28;20180;-71
2021/09/04 06:18:57;;;;;;;9.77;2.88;;;18.40;72.60;;;;;;5098419;28;20460;-71
2021/09/04 06:21:23;;;;;;;4.63;2.15;;;18.40;72.80;;;;;;5098058;28;20051;-72
2021/09/04 06:23:49;;;;;;;14.02;2.67;;;18.30;72.90;;;;;;5097353;28;20069;-73
2021/09/04 06:26:15;;;;;;;4.65;2.22;;;18.30;73.30;;;;;;5098287;28;20439;-71
2021/09/04 06:28:40;;;;;;;6.20;1.90;;;18.30;73.10;;;;;;5098241;28;20040;-72
2021/09/04 06:31:06;;;;;;;8.02;2.03;;;18.30;73.30;;;;;;5098010;28;20135;-71
2021/09/04 06:33:32;;;;;;;6.22;2.20;;;18.20;73.30;;;;;;5097815;28;20079;-71
2021/09/04 06:35:57;;;;;;;15.70;2.50;;;18.20;73.40;;;;;;5097846;28;20036;-72
2021/09/04 06:38:23;;;;;;;4.25;2.00;;;18.10;73.90;;;;;;5097993;28;20051;-71
2021/09/04 06:40:49;;;;;;;8.73;2.20;;;18.10;73.80;;;;;;5097497;28;20462;-73
2021/09/04 06:43:14;;;;;;;8.65;2.33;;;18.10;73.90;;;;;;5097075;28;20048;-75
2021/09/04 06:45:40;;;;;;;6.68;2.38;;;18.20;73.80;;;;;;5097234;28;20072;-72
2021/09/04 06:48:06;;;;;;;6.97;2.17;;;18.20;73.90;;;;;;5098151;28;20462;-73
2021/09/04 06:50:32;;;;;;;5.68;2.10;;;18.30;73.80;;;;;;5097887;28;20046;-72
2021/09/04 06:52:58;;;;;;;8.15;2.55;;;18.30;73.70;;;;;;5097321;28;20048;-72
2021/09/04 06:55:23;;;;;;;10.23;2.60;;;18.30;73.50;;;;;;5098082;28;20122;-73
2021/09/04 06:57:50;;;;;;;9.65;2.50;;;18.30;73.60;;;;;;5079435;28;20115;-72
2021/09/04 07:00:16;;;;;;;8.15;2.13;;;18.30;73.60;;;;;;5097086;28;20040;-73
2021/09/04 07:02:42;;;;;;;6.60;2.25;;;18.40;73.60;;;;;;5098121;28;20052;-72
2021/09/04 07:05:08;;;;;;;7.05;2.17;;;18.30;73.70;;;;;;5096732;28;20401;-72
2021/09/04 07:07:34;;;;;;;4.15;2.35;;;18.30;73.30;;;;;;5086276;28;20040;-72
2021/09/04 07:09:59;;;;;;;8.18;2.35;;;18.30;73.30;;;;;;5059489;28;20059;-69
2021/09/04 07:12:25;;;;;;;14.85;2.83;;;18.30;73.30;;;;;;5076689;28;20348;-74
2021/09/04 07:14:51;;;;;;;15.00;3.45;;;18.40;73.60;;;;;;5076890;28;20201;-73
2021/09/04 07:17:20;;;;;;;6.90;1.90;;;18.40;73.90;;;;;;5088323;28;20040;-73
2021/09/04 07:19:47;;;;;;;7.75;2.65;;;18.40;73.50;;;;;;5066635;28;20047;-73
2021/09/04 07:22:19;;;;;;;7.28;2.03;;;18.40;73.00;;;;;;5096193;28;20463;-72
2021/09/04 07:24:45;;;;;;;8.05;2.05;;;18.40;72.90;;;;;;5095905;28;20059;-72
2021/09/04 07:27:11;;;;;;;10.30;3.00;;;18.40;72.80;;;;;;5096485;28;20350;-76
2021/09/04 07:29:36;;;;;;;13.57;2.40;;;18.40;73.90;;;;;;5096952;28;20070;-71
2021/09/04 07:32:02;;;;;;;10.35;2.45;;;18.50;73.90;;;;;;5096864;28;20335;-72
2021/09/04 07:34:28;;;;;;;6.75;2.30;;;18.60;73.20;;;;;;5096803;28;20558;-69
2021/09/04 07:36:54;;;;;;;9.20;2.47;;;18.50;73.20;;;;;;5096476;28;20119;-71
2021/09/04 07:39:19;;;;;;;9.00;2.58;;;18.60;73.50;;;;;;5078933;28;20039;-71
2021/09/04 07:41:45;;;;;;;9.75;2.30;;;18.60;73.60;;;;;;5096865;28;20119;-70
2021/09/04 07:44:11;;;;;;;8.20;2.47;;;18.60;73.00;;;;;;5085380;28;20443;-71
2021/09/04 07:46:37;;;;;;;7.50;2.03;;;18.70;73.10;;;;;;5073078;28;20135;-70
2021/09/04 07:49:02;;;;;;;10.13;2.50;;;18.70;73.00;;;;;;5096554;28;20044;-70
2021/09/04 07:51:28;;;;;;;8.73;2.30;;;18.60;73.30;;;;;;5096070;28;20032;-70
2021/09/04 07:53:54;;;;;;;13.00;2.80;;;18.70;73.50;;;;;;5096582;28;20090;-70
2021/09/04 07:56:19;;;;;;;7.03;2.08;;;18.80;73.50;;;;;;5090103;28;20447;-70
2021/09/04 07:58:45;;;;;;;6.82;2.45;;;18.80;73.10;;;;;;5096250;28;20043;-70
2021/09/04 08:01:11;;;;;;;6.07;2.45;;;18.80;73.00;;;;;;5096355;28;20224;-70
2021/09/04 08:03:36;;;;;;;11.73;2.60;;;18.90;72.90;;;;;;5081760;28;20040;-71
2021/09/04 08:06:02;;;;;;;6.43;1.95;;;18.90;72.60;;;;;;5063492;28;20049;-69
2021/09/04 08:08:28;;;;;;;10.00;2.35;;;18.90;72.30;;;;;;5039099;28;20119;-69
2021/09/04 08:10:55;;;;;;;6.45;2.53;;;18.90;72.30;;;;;;5073515;28;20049;-71
2021/09/04 08:13:21;;;;;;;5.28;2.80;;;18.90;72.40;;;;;;5075977;28;20049;-70
2021/09/04 08:15:48;;;;;;;7.63;2.10;;;18.90;72.50;;;;;;5076087;28;20037;-74
2021/09/04 08:18:14;;;;;;;7.40;2.30;;;18.90;72.60;;;;;;5075889;28;20040;-75
2021/09/04 08:20:40;;;;;;;5.00;2.10;;;18.90;72.70;;;;;;5075929;28;20040;-75
2021/09/04 08:23:07;;;;;;;6.32;3.00;;;18.90;72.60;;;;;;5075706;28;20055;-70
2021/09/04 08:25:36;;;;;;;6.50;2.50;;;18.90;72.60;;;;;;5072594;28;20041;-70
2021/09/04 08:28:07;;;;;;;9.10;2.47;;;18.90;72.60;;;;;;5075567;28;20102;-70
2021/09/04 08:30:35;;;;;;;7.60;2.88;;;18.90;72.60;;;;;;5075857;28;20040;-73
2021/09/04 08:33:04;;;;;;;5.68;2.53;;;18.90;72.70;;;;;;5075293;28;20129;-74
2021/09/04 08:35:30;;;;;;;7.50;2.00;;;18.90;72.70;;;;;;5054801;28;20045;-72
2021/09/04 08:37:56;;;;;;;6.55;2.58;;;18.90;72.60;;;;;;5053287;28;20109;-72
2021/09/04 08:40:22;;;;;;;4.38;1.63;;;18.90;72.10;;;;;;5057692;28;20055;-72
2021/09/04 08:42:49;;;;;;;9.85;2.17;;;19.00;71.00;;;;;;5079747;28;20051;-75
2021/09/04 08:45:15;;;;;;;4.90;1.77;;;19.00;69.90;;;;;;5095376;28;20134;-73
2021/09/04 08:47:44;;;;;;;4.05;1.92;;;19.00;69.50;;;;;;5094757;28;20435;-73
2021/09/04 08:50:11;;;;;;;7.30;2.25;;;19.00;69.30;;;;;;5095382;28;20409;-73
2021/09/04 08:52:37;;;;;;;5.07;2.10;;;18.90;69.90;;;;;;5077919;28;20040;-74
2021/09/04 08:55:03;;;;;;;7.10;2.20;;;18.90;70.10;;;;;;5095836;28;20040;-72
2021/09/04 08:57:29;;;;;;;7.10;2.40;;;18.90;70.30;;;;;;5095633;28;20040;-72
2021/09/04 09:00:00;;;;;;;8.75;1.77;;;18.90;70.30;;;;;;5094965;28;20043;-72
2021/09/04 09:02:27;;;;;;;10.65;2.05;;;18.80;69.90;;;;;;5095065;28;20343;-71
2021/09/04 09:05:02;;;;;;;8.00;2.03;;;18.80;70.40;;;;;;5095112;28;20043;-71
2021/09/04 09:07:40;;;;;;;5.82;1.95;;;18.80;70.70;;;;;;5095225;28;20052;-72
2021/09/04 09:10:28;;;;;;;12.73;2.38;;;18.80;70.50;;;;;;5095400;28;20126;-71
2021/09/04 09:12:53;;;;;;;5.82;1.98;;;18.80;70.90;;;;;;5095584;28;20075;-72
2021/09/04 09:15:21;;;;;;;12.02;2.60;;;18.80;71.00;;;;;;5095153;28;20079;-71
2021/09/04 09:18:19;;;;;;;8.48;1.75;;;18.80;71.20;;;;;;5094590;28;20105;-71
2021/09/04 09:20:47;;;;;;;7.70;2.00;;;18.90;71.40;;;;;;5039260;28;20106;-71
2021/09/04 09:23:18;;;;;;;9.32;1.90;;;18.90;71.10;;;;;;5094969;28;20044;-72
2021/09/04 09:25:46;;;;;;;7.65;2.17;;;19.00;70.50;;;;;;5095096;28;20036;-71
2021/09/04 09:28:13;;;;;;;5.65;2.50;;;19.00;70.00;;;;;;5095452;28;20118;-75
2021/09/04 09:30:41;;;;;;;7.75;2.65;;;19.00;70.30;;;;;;5098145;28;20040;-72
2021/09/04 09:33:09;;;;;;;10.20;2.78;;;19.00;70.40;;;;;;5098551;28;20032;-71
2021/09/04 09:35:39;;;;;;;8.38;2.05;;;19.00;70.40;;;;;;5099083;28;20080;-72
2021/09/04 09:38:07;;;;;;;6.05;2.60;;;19.00;70.40;;;;;;5098719;28;20482;-75
2021/09/04 09:40:34;;;;;;;11.23;2.92;;;18.90;70.80;;;;;;5098906;28;20119;-71
2021/09/04 09:43:00;;;;;;;5.38;2.25;;;18.90;70.70;;;;;;5099051;28;20060;-69
2021/09/04 09:45:47;;;;;;;8.95;2.92;;;18.90;70.60;;;;;;5098873;28;20091;-69
2021/09/04 09:48:15;;;;;;;6.30;2.10;;;19.10;71.20;;;;;;5095402;28;20047;-68
2021/09/04 09:50:40;;;;;;;9.32;2.25;;;19.10;71.10;;;;;;5098631;28;20036;-69
2021/09/04 09:53:06;;;;;;;5.75;2.58;;;19.10;70.50;;;;;;5098720;28;20039;-69
2021/09/04 09:55:32;;;;;;;6.05;2.38;;;19.00;69.70;;;;;;5099626;28;20122;-69
2021/09/04 09:57:59;;;;;;;8.35;2.50;;;18.90;69.30;;;;;;5098746;28;20043;-69
2021/09/04 10:00:27;;;;;;;7.00;2.17;;;18.90;69.80;;;;;;5098780;28;20036;-70
2021/09/04 10:02:56;;;;;;;6.43;2.38;;;18.90;69.60;;;;;;5098000;28;20514;-69
2021/09/04 10:05:25;;;;;;;7.88;2.65;;;18.90;69.60;;;;;;5098534;28;20161;-70
2021/09/04 10:07:53;;;;;;;13.95;7.03;;;18.90;70.30;;;;;;5098622;28;20039;-73
2021/09/04 10:10:21;;;;;;;10.40;3.60;;;18.90;70.80;;;;;;5080397;28;20052;-75
2021/09/04 10:12:48;;;;;;;13.68;3.65;;;18.90;69.00;;;;;;5099159;28;20457;-75
2021/09/04 10:15:14;;;;;;;8.65;3.03;;;19.00;69.50;;;;;;5098381;28;20063;-75
2021/09/04 10:17:41;;;;;;;10.27;4.32;;;19.00;70.30;;;;;;5080486;28;20048;-74
2021/09/04 10:20:08;;;;;;;11.18;3.55;;;19.10;70.80;;;;;;5097985;28;20061;-73
2021/09/04 10:22:33;;;;;;;16.17;3.97;;;19.10;70.80;;;;;;5094916;28;20055;-73
2021/09/04 10:25:02;;;;;;;19.67;4.38;;;19.20;70.80;;;;;;5092748;28;20037;-74
2021/09/04 10:27:40;;;;;;;11.82;3.40;;;19.20;70.80;;;;;;5094129;28;20169;-73
2021/09/04 10:30:34;;;;;;;11.52;4.07;;;19.20;70.80;;;;;;5089159;28;20052;-73
2021/09/04 10:33:01;;;;;;;9.52;3.83;;;19.30;70.90;;;;;;5094802;28;20039;-70
2021/09/04 10:35:42;;;;;;;12.18;3.60;;;19.30;71.00;;;;;;5097380;28;20169;-70
2021/09/04 10:38:20;;;;;;;7.28;3.13;;;19.30;71.10;;;;;;5097951;28;20077;-70
2021/09/04 10:40:46;;;;;;;9.50;3.10;;;19.30;71.20;;;;;;5096662;28;20040;-70
2021/09/04 10:43:14;;;;;;;7.93;2.90;;;19.20;71.20;;;;;;5097274;28;20452;-70
2021/09/04 10:45:44;;;;;;;6.53;3.08;;;19.30;71.40;;;;;;5097750;28;20446;-70
2021/09/04 10:48:20;;;;;;;11.70;3.90;;;19.30;71.70;;;;;;5097807;28;20051;-71
2021/09/04 10:51:03;;;;;;;7.75;2.72;;;19.30;71.90;;;;;;5097681;28;20102;-71
2021/09/04 10:53:45;;;;;;;8.07;3.15;;;19.30;72.00;;;;;;5098527;28;20119;-71
2021/09/04 10:56:22;;;;;;;4.90;2.90;;;19.30;72.10;;;;;;5097507;28;20036;-70
2021/09/04 10:58:50;;;;;;;7.57;3.47;;;19.40;72.20;;;;;;5097798;28;20054;-71
2021/09/04 11:01:52;;;;;;;8.10;3.00;;;19.30;72.00;;;;;;5098095;28;20044;-71
2021/09/04 11:04:18;;;;;;;9.43;3.20;;;19.30;72.10;;;;;;5097982;28;20040;-71
2021/09/04 11:06:55;;;;;;;6.93;2.95;;;19.40;72.20;;;;;;5097359;28;20486;-71
2021/09/04 11:09:49;;;;;;;10.32;3.03;;;19.40;72.20;;;;;;5097658;28;20040;-71
2021/09/04 11:12:15;;;;;;;8.63;3.00;;;19.40;72.30;;;;;;5079130;28;20047;-70
2021/09/04 11:14:47;;;;;;;5.50;2.80;;;19.40;72.20;;;;;;5097593;28;20036;-71
2021/09/04 11:17:19;;;;;;;6.53;3.10;;;19.40;72.30;;;;;;5079016;28;20039;-70
2021/09/04 11:19:45;;;;;;;6.70;3.30;;;19.30;72.30;;;;;;5097526;28;20102;-70
2021/09/04 11:22:14;;;;;;;6.30;3.25;;;19.40;72.40;;;;;;5097029;28;20079;-71
2021/09/04 11:24:41;;;;;;;6.90;3.22;;;19.40;72.50;;;;;;5096916;28;20036;-70
2021/09/04 11:27:19;;;;;;;6.90;2.40;;;19.40;72.50;;;;;;5097098;28;20350;-70
2021/09/04 11:29:53;;;;;;;5.68;2.53;;;19.40;72.40;;;;;;5097020;28;20051;-71
2021/09/04 11:32:21;;;;;;;6.50;3.15;;;19.40;72.40;;;;;;5096951;28;20043;-70
2021/09/04 11:34:54;;;;;;;5.68;3.15;;;19.40;72.50;;;;;;5096840;28;20048;-70
2021/09/04 11:37:25;;;;;;;9.50;2.90;;;19.40;72.50;;;;;;5093914;28;20039;-70
2021/09/04 11:39:57;;;;;;;7.22;3.00;;;19.40;72.60;;;;;;5096546;28;20126;-71
2021/09/04 11:42:26;;;;;;;5.30;3.20;;;19.40;72.50;;;;;;5096279;28;20047;-71
2021/09/04 11:44:57;;;;;;;6.53;3.25;;;19.40;72.50;;;;;;5096360;28;20351;-70
2021/09/04 11:47:24;;;;;;;6.28;3.50;;;19.40;72.60;;;;;;5076306;28;20058;-70
2021/09/04 11:49:52;;;;;;;5.72;3.20;;;19.40;72.70;;;;;;5076127;28;20123;-70
2021/09/04 11:52:32;;;;;;;6.10;2.72;;;19.40;72.70;;;;;;5075727;28;20052;-71
2021/09/04 11:55:12;;;;;;;4.90;2.55;;;19.40;72.70;;;;;;5058672;28;20459;-71
2021/09/04 11:57:41;;;;;;;4.80;2.90;;;19.40;72.80;;;;;;5076223;28;20441;-71
2021/09/04 12:00:10;;;;;;;5.15;3.10;;;19.40;72.70;;;;;;5087062;28;20456;-70
2021/09/04 12:02:40;;;;;;;5.65;3.17;;;19.40;72.70;;;;;;5096314;28;20044;-70
2021/09/04 12:05:08;;;;;;;6.28;3.50;;;19.40;72.80;;;;;;5091748;28;20100;-70
2021/09/04 12:07:35;;;;;;;7.55;3.88;;;19.40;72.80;;;;;;5092988;28;20036;-70
2021/09/04 12:10:02;;;;;;;6.25;3.70;;;19.40;72.70;;;;;;5088377;28;20062;-71
2021/09/04 12:12:30;;;;;;;7.82;3.17;;;19.50;72.60;;;;;;5083295;28;20086;-70
2021/09/04 12:14:56;;;;;;;6.25;3.55;;;19.50;72.50;;;;;;5086950;28;20048;-70
2021/09/04 12:17:23;;;;;;;6.45;3.50;;;19.40;72.40;;;;;;5095886;28;20131;-70
2021/09/04 12:19:50;;;;;;;6.28;3.78;;;19.40;72.50;;;;;;5099955;28;20036;-70
2021/09/04 12:22:16;;;;;;;7.45;3.55;;;19.40;72.50;;;;;;5096289;28;20169;-71
2021/09/04 12:24:42;;;;;;;6.45;3.58;;;19.40;72.50;;;;;;5096372;28;20039;-70
2021/09/04 12:27:09;;;;;;;6.72;4.18;;;19.40;72.50;;;;;;5095738;28;20356;-70
2021/09/04 12:29:35;;;;;;;5.85;3.63;;;19.50;72.60;;;;;;5094506;28;20465;-70
2021/09/04 12:32:12;;;;;;;7.30;4.07;;;19.40;72.60;;;;;;5095379;28;20040;-70
2021/09/04 12:34:39;;;;;;;5.20;3.92;;;19.50;72.60;;;;;;5075334;28;20036;-71
2021/09/04 12:37:24;;;;;;;6.47;3.38;;;19.40;72.60;;;;;;5095645;28;20344;-71
2021/09/04 12:39:50;;;;;;;5.68;3.80;;;19.50;72.70;;;;;;5095637;28;20450;-70
2021/09/04 12:42:16;;;;;;;8.35;4.00;;;19.50;72.70;;;;;;5093134;28;20063;-71
2021/09/04 12:44:46;;;;;;;5.45;3.75;;;19.40;72.70;;;;;;5094922;28;20078;-70
2021/09/04 12:47:13;;;;;;;6.63;3.67;;;19.50;72.80;;;;;;5077719;28;20185;-70